Time;durP1;ratioP1;P1;durP2;ratioP2;P2;SDS_P1;SDS_P2;PMS_P1;PMS_P2;Temp;Humidity;BMP_temperature;BMP_pressure;BME280_temperature;BME280_humidity;BME280_pressure;Samples;Min_cycle;Max_cycle;Signal;HPM_P1;HPM_P2
2023/09/05 00:01:54;;;;;;;4.53;2.42;;;;;;;21.04;58.14;101898.63;5079926;28;20037;-70
2023/09/05 00:04:22;;;;;;;4.18;2.50;;;;;;;20.96;58.36;101890.94;5082343;28;20078;-70
2023/09/05 00:06:50;;;;;;;3.42;2.40;;;;;;;20.93;58.14;101888.72;5080631;28;20048;-70
2023/09/05 00:09:19;;;;;;;5.03;2.50;;;;;;;20.98;58.12;101888.75;5081308;28;20052;-70
2023/09/05 00:11:50;;;;;;;4.25;2.53;;;;;;;20.96;57.98;101891.75;5075096;28;20111;-70
2023/09/05 00:14:20;;;;;;;4.70;2.65;;;;;;;20.84;58.12;101876.66;5095101;28;20051;-69
2023/09/05 00:16:48;;;;;;;4.72;2.67;;;;;;;20.93;58.14;101883.25;5092089;28;20052;-70
2023/09/05 00:19:16;;;;;;;5.07;2.90;;;;;;;20.91;58.07;101883.53;5097355;28;20055;-70
2023/09/05 00:21:44;;;;;;;3.97;2.33;;;;;;;20.79;58.15;101864.63;5097831;28;20048;-70
2023/09/05 00:24:25;;;;;;;4.72;2.60;;;;;;;20.88;58.11;101875.03;5097964;28;20049;-69
2023/09/05 00:26:55;;;;;;;4.38;2.63;;;;;;;20.79;58.16;101861.91;5096392;28;20060;-69
2023/09/05 00:29:23;;;;;;;3.72;2.70;;;;;;;20.86;58.22;101874.47;5096386;28;20044;-69
2023/09/05 00:31:51;;;;;;;4.65;2.60;;;;;;;20.83;58.15;101877.75;5100553;28;20044;-69
2023/09/05 00:34:19;;;;;;;5.28;2.55;;;;;;;20.81;58.14;101878.00;5098546;28;20048;-69
2023/09/05 00:36:48;;;;;;;3.90;2.50;;;;;;;20.79;58.06;101875.56;5100832;28;20048;-69
2023/09/05 00:39:17;;;;;;;6.50;2.97;;;;;;;20.77;58.24;101880.47;5098462;28;20064;-69
2023/09/05 00:41:45;;;;;;;4.15;2.95;;;;;;;20.77;58.13;101885.13;5102144;28;20052;-69
2023/09/05 00:44:15;;;;;;;4.32;2.83;;;;;;;20.76;58.11;101884.28;5105401;28;20055;-70
2023/09/05 00:46:45;;;;;;;4.53;2.70;;;;;;;20.73;58.12;101882.09;5103765;28;20051;-69
2023/09/05 00:49:15;;;;;;;5.18;2.75;;;;;;;20.73;57.96;101886.72;5106013;28;20074;-70
2023/09/05 00:51:45;;;;;;;4.97;3.40;;;;;;;20.70;58.09;101893.56;5106129;28;20509;-71
2023/09/05 00:54:13;;;;;;;4.07;2.53;;;;;;;20.69;58.12;101894.63;5104633;28;20071;-68
2023/09/05 00:56:41;;;;;;;4.05;2.38;;;;;;;20.67;58.01;101887.78;5102212;28;20044;-69
2023/09/05 00:59:10;;;;;;;4.00;2.22;;;;;;;20.65;58.04;101888.06;5100960;28;20048;-70
2023/09/05 01:01:39;;;;;;;4.50;2.30;;;;;;;20.63;58.10;101884.75;5101492;28;20043;-70
2023/09/05 01:04:07;;;;;;;5.68;2.40;;;;;;;20.63;58.15;101878.47;5098912;28;20050;-70
2023/09/05 01:06:46;;;;;;;5.03;2.45;;;;;;;20.61;57.99;101880.66;5097243;28;20048;-70
2023/09/05 01:09:26;;;;;;;7.68;2.65;;;;;;;20.60;58.17;101879.81;5102810;28;20571;-70
2023/09/05 01:11:55;;;;;;;3.42;2.25;;;;;;;20.57;58.19;101874.88;5103640;28;20052;-69
2023/09/05 01:14:23;;;;;;;4.05;2.45;;;;;;;20.51;58.17;101867.75;5104438;28;20141;-70
2023/09/05 01:16:56;;;;;;;4.20;2.30;;;;;;;20.56;58.21;101880.63;5097602;28;20044;-69
2023/09/05 01:19:28;;;;;;;4.30;2.63;;;;;;;20.53;58.08;101878.41;5099856;28;20082;-70
2023/09/05 01:22:19;;;;;;;4.13;2.58;;;;;;;20.52;58.14;101883.06;5104877;28;20048;-69
2023/09/05 01:24:50;;;;;;;3.65;2.70;;;;;;;20.50;58.15;101871.56;5102630;28;20063;-69
2023/09/05 01:27:19;;;;;;;4.10;2.50;;;;;;;20.49;58.08;101877.28;5101818;28;20071;-69
2023/09/05 01:29:48;;;;;;;5.50;2.65;;;;;;;20.48;57.98;101879.19;5101783;28;20062;-70
2023/09/05 01:32:17;;;;;;;6.75;3.08;;;;;;;20.47;57.99;101888.47;5104431;28;20040;-69
2023/09/05 01:34:45;;;;;;;4.22;2.50;;;;;;;20.47;58.09;101888.47;5103469;28;20062;-70
2023/09/05 01:37:15;;;;;;;4.72;2.28;;;;;;;20.44;58.13;101889.00;5104632;28;20065;-69
2023/09/05 01:39:43;;;;;;;4.20;2.70;;;;;;;20.44;58.16;101886.28;5104138;28;20048;-70
2023/09/05 01:42:12;;;;;;;4.03;2.10;;;;;;;20.42;58.02;101889.25;5103745;28;20040;-70
2023/09/05 01:44:40;;;;;;;6.47;2.30;;;;;;;20.40;58.13;101896.91;5102812;28;20048;-70
2023/09/05 01:47:08;;;;;;;3.83;2.38;;;;;;;20.39;57.95;101897.97;5104438;28;20048;-69
2023/09/05 01:49:35;;;;;;;6.13;2.75;;;;;;;20.39;57.93;101894.44;5103945;28;20093;-69
2023/09/05 01:52:04;;;;;;;4.30;2.42;;;;;;;20.36;58.06;101890.28;5103967;28;20052;-70
2023/09/05 01:54:31;;;;;;;3.60;2.47;;;;;;;20.35;57.91;101894.09;5102142;28;20044;-71
2023/09/05 01:56:59;;;;;;;4.05;2.50;;;;;;;20.34;58.04;101886.16;5103754;28;20081;-70
2023/09/05 01:59:28;;;;;;;3.08;2.38;;;;;;;20.31;58.04;101884.78;5100359;28;20047;-69
2023/09/05 02:01:56;;;;;;;3.25;2.22;;;;;;;20.31;57.89;101887.50;5104266;28;20055;-69
2023/09/05 02:04:24;;;;;;;4.03;2.42;;;;;;;20.31;57.80;101883.97;5103291;28;20052;-69
2023/09/05 02:06:52;;;;;;;4.05;2.42;;;;;;;20.28;57.85;101885.31;5105012;28;20058;-70
2023/09/05 02:09:20;;;;;;;4.03;2.42;;;;;;;20.27;57.98;101894.56;5099943;28;20044;-70
2023/09/05 02:11:47;;;;;;;3.50;2.47;;;;;;;20.26;57.85;101894.84;5099550;28;20052;-70
2023/09/05 02:14:15;;;;;;;6.22;2.30;;;;;;;20.24;57.85;101892.38;5100089;28;20205;-70
2023/09/05 02:16:44;;;;;;;4.53;1.80;;;;;;;20.22;57.89;101885.53;5104404;28;20044;-69
2023/09/05 02:19:13;;;;;;;4.75;2.30;;;;;;;20.21;57.94;101883.88;5101250;28;20048;-70
2023/09/05 02:21:41;;;;;;;4.57;2.50;;;;;;;20.20;57.78;101891.25;5101802;28;20465;-69
2023/09/05 02:24:09;;;;;;;4.07;2.25;;;;;;;20.20;57.76;101890.41;5098501;28;20047;-70
2023/09/05 02:26:37;;;;;;;3.42;2.50;;;;;;;20.17;57.85;101890.94;5100243;28;20044;-69
2023/09/05 02:29:06;;;;;;;5.32;2.88;;;;;;;20.15;57.92;101880.28;5100095;28;20040;-69
2023/09/05 02:31:33;;;;;;;4.13;2.40;;;;;;;20.14;57.88;101884.91;5099309;28;20052;-69
2023/09/05 02:34:02;;;;;;;5.25;2.42;;;;;;;20.11;57.83;101877.25;5092079;28;20387;-70
2023/09/05 02:36:31;;;;;;;5.38;2.60;;;;;;;20.11;57.78;101887.34;5101208;28;20052;-69
2023/09/05 02:38:59;;;;;;;4.47;2.78;;;;;;;20.09;57.79;101878.59;5100299;28;20098;-70
2023/09/05 02:41:26;;;;;;;4.97;2.40;;;;;;;20.07;57.89;101881.59;5099482;28;20048;-70
2023/09/05 02:43:54;;;;;;;3.47;2.28;;;;;;;20.03;57.83;101883.19;5103257;28;20044;-69
2023/09/05 02:46:22;;;;;;;5.95;2.45;;;;;;;20.04;57.92;101879.38;5103158;28;20056;-69
2023/09/05 02:48:50;;;;;;;4.43;2.28;;;;;;;20.03;57.76;101880.47;5102404;28;20044;-70
2023/09/05 02:51:19;;;;;;;4.22;2.55;;;;;;;20.02;57.83;101880.72;5100644;28;20489;-69
2023/09/05 02:53:48;;;;;;;3.83;2.42;;;;;;;19.99;57.83;101878.50;5096877;28;20052;-70
2023/09/05 02:56:17;;;;;;;4.47;2.20;;;;;;;19.98;57.91;101877.69;5099669;28;20051;-71
2023/09/05 02:58:45;;;;;;;3.22;2.25;;;;;;;19.97;58.05;101872.50;5094436;28;20044;-71
2023/09/05 03:01:13;;;;;;;3.65;2.40;;;;;;;19.95;57.83;101864.56;5099246;28;20051;-71
2023/09/05 03:03:41;;;;;;;3.65;2.67;;;;;;;19.95;57.94;101866.47;5101987;28;20104;-71
2023/09/05 03:06:10;;;;;;;6.22;2.78;;;;;;;19.93;57.67;101855.00;5100359;28;20063;-71
2023/09/05 03:08:42;;;;;;;4.40;3.00;;;;;;;19.92;57.64;101865.06;5098094;28;20040;-71
2023/09/05 03:11:10;;;;;;;3.65;2.25;;;;;;;19.91;57.66;101868.06;5100713;28;20044;-70
2023/09/05 03:13:38;;;;;;;6.82;2.70;;;;;;;19.89;57.71;101870.22;5103082;28;20055;-71
2023/09/05 03:16:05;;;;;;;3.25;2.25;;;;;;;19.89;57.71;101867.50;5101403;28;20040;-70
2023/09/05 03:18:33;;;;;;;4.22;2.20;;;;;;;19.87;57.73;101873.22;5102542;28;20043;-70
2023/09/05 03:21:01;;;;;;;4.82;2.30;;;;;;;19.87;57.67;101869.66;5097626;28;20048;-70
2023/09/05 03:23:29;;;;;;;3.33;2.47;;;;;;;19.86;57.85;101877.03;5097755;28;20111;-70
2023/09/05 03:25:58;;;;;;;5.45;2.58;;;;;;;19.85;57.74;101875.38;5099571;28;20047;-70
2023/09/05 03:28:38;;;;;;;5.70;2.17;;;;;;;19.82;57.82;101865.81;5097254;28;20055;-70
2023/09/05 03:31:06;;;;;;;4.60;2.13;;;;;;;19.82;57.65;101865.81;5096977;28;20162;-70
2023/09/05 03:33:34;;;;;;;3.28;2.35;;;;;;;19.80;57.90;101864.41;5100357;28;20106;-70
2023/09/05 03:36:03;;;;;;;4.82;2.40;;;;;;;19.79;57.69;101860.03;5102474;28;20052;-70
2023/09/05 03:38:30;;;;;;;3.22;2.35;;;;;;;19.77;57.88;101868.50;5105634;28;20048;-68
2023/09/05 03:41:00;;;;;;;4.28;2.78;;;;;;;19.78;57.81;101869.31;5099736;28;20056;-70
2023/09/05 03:43:28;;;;;;;3.47;2.42;;;;;;;19.76;57.81;101869.56;5097613;28;20040;-70
2023/09/05 03:45:56;;;;;;;4.80;2.50;;;;;;;19.75;57.83;101864.38;5100990;28;20051;-70
2023/09/05 03:48:24;;;;;;;3.22;2.45;;;;;;;19.72;57.83;101863.00;5101309;28;20056;-70
2023/09/05 03:50:52;;;;;;;3.75;2.40;;;;;;;19.72;57.77;101868.44;5100926;28;20048;-69
2023/09/05 03:53:20;;;;;;;3.90;2.50;;;;;;;19.71;57.85;101864.06;5099017;28;20052;-69
2023/09/05 03:55:48;;;;;;;3.90;2.40;;;;;;;19.69;57.69;101868.97;5099084;28;20101;-68
2023/09/05 03:58:17;;;;;;;4.22;2.92;;;;;;;19.68;57.81;101880.94;5100121;28;20066;-70
2023/09/05 04:00:45;;;;;;;3.88;2.58;;;;;;;19.67;57.79;101870.28;5095655;28;20040;-70
2023/09/05 04:03:13;;;;;;;5.20;2.80;;;;;;;19.66;57.88;101864.00;5098402;28;20058;-70
2023/09/05 04:05:41;;;;;;;4.50;2.20;;;;;;;19.65;57.98;101858.81;5094945;28;20043;-70
2023/09/05 04:08:10;;;;;;;3.55;2.35;;;;;;;19.64;58.02;101857.16;5100549;28;20508;-70
2023/09/05 04:10:38;;;;;;;3.95;2.17;;;;;;;19.62;57.92;101857.44;5099535;28;20048;-69
2023/09/05 04:13:06;;;;;;;4.28;2.45;;;;;;;19.60;58.04;101848.69;5099712;28;20056;-70
2023/09/05 04:15:36;;;;;;;4.15;2.38;;;;;;;19.60;57.99;101856.03;5098782;28;20100;-70
2023/09/05 04:18:05;;;;;;;3.13;2.10;;;;;;;19.58;57.94;101853.56;5098389;28;20071;-70
2023/09/05 04:20:34;;;;;;;5.22;2.50;;;;;;;19.56;57.86;101844.00;5096963;28;20044;-70
2023/09/05 04:23:02;;;;;;;5.88;2.50;;;;;;;19.55;57.94;101848.63;5095177;28;20269;-70
2023/09/05 04:25:29;;;;;;;3.10;2.15;;;;;;;19.54;58.10;101844.25;5098800;28;20059;-70
2023/09/05 04:27:57;;;;;;;3.33;2.38;;;;;;;19.53;58.07;101844.50;5098921;28;20045;-69
2023/09/05 04:30:25;;;;;;;5.18;2.88;;;;;;;19.50;58.06;101840.38;5096243;28;20492;-70
2023/09/05 04:32:54;;;;;;;4.32;2.47;;;;;;;19.50;58.06;101843.91;5093961;28;20058;-71
2023/09/05 04:35:22;;;;;;;5.50;2.70;;;;;;;19.49;58.01;101844.19;5097668;28;20501;-70
2023/09/05 04:37:52;;;;;;;6.65;2.50;;;;;;;19.48;58.17;101845.25;5097383;28;20062;-70
2023/09/05 04:40:20;;;;;;;7.65;2.78;;;;;;;19.46;58.15;101845.50;5098569;28;20510;-70
2023/09/05 04:42:48;;;;;;;4.70;2.55;;;;;;;19.40;58.29;101826.63;5100434;28;20070;-70
2023/09/05 04:45:16;;;;;;;4.72;2.83;;;;;;;19.44;58.05;101838.66;5100228;28;20040;-70
2023/09/05 04:47:43;;;;;;;3.67;2.47;;;;;;;19.42;58.17;101838.94;5096311;28;20047;-70
2023/09/05 04:50:12;;;;;;;5.63;2.83;;;;;;;19.42;58.06;101824.47;5097432;28;20543;-68
2023/09/05 04:52:40;;;;;;;5.05;2.70;;;;;;;19.41;58.27;101841.91;5094174;28;20059;-69
2023/09/05 04:55:09;;;;;;;4.28;2.35;;;;;;;19.40;58.21;101840.25;5092287;28;20147;-71
2023/09/05 04:57:36;;;;;;;5.15;2.67;;;;;;;19.39;58.23;101835.88;5093844;28;20055;-69
2023/09/05 05:00:06;;;;;;;4.78;2.95;;;;;;;19.36;58.30;101836.41;5095634;28;20501;-67
2023/09/05 05:02:34;;;;;;;3.95;2.60;;;;;;;19.26;58.33;101815.31;5099736;28;20044;-69
2023/09/05 05:05:02;;;;;;;4.00;2.22;;;;;;;19.34;58.39;101831.22;5100391;28;20440;-71
2023/09/05 05:07:32;;;;;;;4.68;2.65;;;;;;;19.33;58.13;101836.91;5096276;28;20056;-70
2023/09/05 05:09:59;;;;;;;3.38;2.33;;;;;;;19.31;58.16;101834.44;5099649;28;20044;-70
2023/09/05 05:12:27;;;;;;;4.63;2.90;;;;;;;19.31;58.21;101845.34;5096852;28;20048;-69
2023/09/05 05:14:55;;;;;;;5.25;2.55;;;;;;;19.30;58.30;101846.44;5093481;28;20142;-70
2023/09/05 05:17:23;;;;;;;2.97;2.17;;;;;;;19.30;58.18;101845.59;5096564;28;20101;-71
2023/09/05 05:19:51;;;;;;;5.18;2.67;;;;;;;19.28;58.24;101845.03;5098588;28;20051;-70
2023/09/05 05:22:19;;;;;;;3.70;2.53;;;;;;;19.27;58.24;101852.38;5100648;28;20040;-69
2023/09/05 05:24:48;;;;;;;13.00;2.47;;;;;;;19.27;58.28;101851.56;5101773;28;20055;-69
2023/09/05 05:27:16;;;;;;;3.85;2.30;;;;;;;19.27;58.28;101854.28;5101525;28;20142;-69
2023/09/05 05:29:43;;;;;;;4.32;2.70;;;;;;;19.25;58.11;101851.81;5101191;28;20078;-69
2023/09/05 05:32:11;;;;;;;5.40;2.85;;;;;;;19.25;58.29;101864.63;5100105;28;20454;-69
2023/09/05 05:34:39;;;;;;;4.60;2.80;;;;;;;19.23;58.22;101864.88;5099380;28;20232;-69
2023/09/05 05:37:07;;;;;;;4.60;2.22;;;;;;;19.23;58.25;101874.97;5104485;28;20059;-67
2023/09/05 05:39:35;;;;;;;3.60;2.35;;;;;;;19.22;58.41;101865.97;5100333;28;20048;-68
2023/09/05 05:42:04;;;;;;;6.57;2.75;;;;;;;19.21;58.38;101863.50;4746981;28;10000150;-67
2023/09/05 05:44:32;;;;;;;4.50;2.38;;;;;;;19.19;58.36;101859.13;5096644;28;20120;-68
2023/09/05 05:47:00;;;;;;;3.95;2.60;;;;;;;19.18;58.24;101859.38;5101202;28;20102;-70
2023/09/05 05:49:29;;;;;;;3.60;2.30;;;;;;;19.19;58.32;101861.84;5097478;28;20040;-69
2023/09/05 05:51:57;;;;;;;3.90;2.50;;;;;;;19.08;58.19;101849.16;5098700;28;20063;-68
2023/09/05 05:54:25;;;;;;;4.22;2.40;;;;;;;19.18;58.45;101864.81;5098897;28;20048;-67
2023/09/05 05:56:55;;;;;;;2.63;1.95;;;;;;;19.16;58.45;101856.91;5096224;28;20056;-69
2023/09/05 05:59:24;;;;;;;8.02;3.22;;;;;;;19.08;58.38;101862.78;5096645;28;20044;-65
2023/09/05 06:01:52;;;;;;;6.45;3.33;;;;;;;19.12;58.10;101869.38;5095202;28;20048;-69
2023/09/05 06:04:20;;;;;;;4.15;2.67;;;;;;;19.13;58.23;101867.47;5098348;28;20078;-68
2023/09/05 06:06:49;;;;;;;6.88;2.58;;;;;;;19.13;58.25;101864.75;5097892;28;20078;-69
2023/09/05 06:09:18;;;;;;;4.15;2.65;;;;;;;19.12;58.35;101860.38;5098923;28;20051;-70
2023/09/05 06:11:46;;;;;;;3.80;2.47;;;;;;;19.08;58.38;101857.34;5099091;28;20418;-67
2023/09/05 06:14:15;;;;;;;3.85;2.65;;;;;;;19.12;58.47;101865.84;5100967;28;20058;-67
2023/09/05 06:16:46;;;;;;;7.30;2.58;;;;;;;19.12;58.53;101861.22;5104567;28;20075;-68
2023/09/05 06:19:14;;;;;;;4.60;2.75;;;;;;;19.13;58.69;101862.84;5104738;28;20107;-66
2023/09/05 06:21:46;;;;;;;10.07;4.32;;;;;;;19.15;58.48;101857.16;5103060;28;20063;-65
2023/09/05 06:24:15;;;;;;;13.38;6.57;;;;;;;19.16;58.52;101856.06;5102099;28;20051;-67
2023/09/05 06:26:45;;;;;;;16.65;9.05;;;;;;;19.16;58.51;101856.91;5103189;28;20143;-66
2023/09/05 06:29:13;;;;;;;28.80;15.30;;;;;;;19.16;58.69;101861.53;5102149;28;20056;-65
2023/09/05 06:31:40;;;;;;;30.85;16.60;;;;;;;19.16;58.49;101858.78;5102535;28;20044;-66
2023/09/05 06:34:09;;;;;;;41.63;23.90;;;;;;;19.17;58.65;101857.72;5103177;28;20173;-67
2023/09/05 06:36:37;;;;;;;40.35;22.73;;;;;;;19.16;58.81;101859.63;5098700;28;20052;-66
2023/09/05 06:39:08;;;;;;;36.17;21.08;;;;;;;19.15;58.61;101863.44;5102833;28;20054;-66
2023/09/05 06:41:36;;;;;;;35.08;19.98;;;;;;;19.16;58.96;101861.53;5099655;28;20420;-66
2023/09/05 06:44:04;;;;;;;38.80;22.25;;;;;;;19.15;58.87;101865.31;5103140;28;20048;-66
2023/09/05 06:46:35;;;;;;;36.05;20.00;;;;;;;19.16;58.98;101858.78;5104228;28;20469;-66
2023/09/05 06:49:04;;;;;;;32.92;17.80;;;;;;;19.15;58.97;101873.50;5103763;28;20056;-66
2023/09/05 06:51:33;;;;;;;33.28;18.63;;;;;;;19.14;58.99;101869.94;5103976;28;20119;-66
2023/09/05 06:54:01;;;;;;;33.22;18.67;;;;;;;19.16;58.98;101869.69;5100913;28;20059;-67
2023/09/05 06:56:29;;;;;;;32.00;16.00;;;;;;;19.15;59.07;101859.88;5101780;28;20461;-67
2023/09/05 06:58:56;;;;;;;28.77;16.25;;;;;;;19.15;59.00;101859.88;5098305;28;20462;-67
2023/09/05 07:01:29;;;;;;;29.40;15.85;;;;;;;19.14;59.15;101855.50;5096149;28;20134;-67
2023/09/05 07:03:57;;;;;;;29.95;15.43;;;;;;;19.15;59.23;101857.16;5098585;28;20089;-66
2023/09/05 07:06:25;;;;;;;24.10;12.85;;;;;;;19.16;59.28;101853.34;5098045;28;20051;-67
2023/09/05 07:08:54;;;;;;;23.58;12.82;;;;;;;19.04;59.37;101826.25;5097582;28;20079;-66
2023/09/05 07:11:22;;;;;;;22.70;11.68;;;;;;;19.17;59.38;101858.53;5101287;28;20069;-66
2023/09/05 07:13:50;;;;;;;21.25;11.82;;;;;;;19.19;59.45;101850.13;5099636;28;20048;-67
2023/09/05 07:16:17;;;;;;;22.70;11.00;;;;;;;19.19;59.50;101845.47;5101886;28;20055;-67
2023/09/05 07:18:45;;;;;;;16.48;9.55;;;;;;;19.18;59.42;101843.84;5104070;28;20083;-67
2023/09/05 07:21:14;;;;;;;17.23;9.73;;;;;;;19.20;59.41;101843.59;5099831;28;20048;-68
2023/09/05 07:23:41;;;;;;;20.48;10.25;;;;;;;19.19;59.50;101842.75;5098090;28;20059;-67
2023/09/05 07:26:11;;;;;;;19.73;9.55;;;;;;;19.23;59.43;101851.25;5099152;28;20048;-68
2023/09/05 07:28:39;;;;;;;17.85;9.25;;;;;;;19.25;59.65;101840.09;5101422;28;20051;-67
2023/09/05 07:31:07;;;;;;;19.20;7.82;;;;;;;19.25;59.61;101838.19;5097238;28;20071;-66
2023/09/05 07:33:35;;;;;;;14.45;8.10;;;;;;;19.27;59.44;101840.66;5099166;28;20048;-67
2023/09/05 07:36:03;;;;;;;15.65;8.88;;;;;;;19.28;59.60;101834.97;5100518;28;20122;-66
2023/09/05 07:38:30;;;;;;;13.30;7.00;;;;;;;19.29;59.53;101831.16;5103202;28;20109;-67
2023/09/05 07:41:03;;;;;;;12.73;7.55;;;;;;;19.31;59.67;101833.63;5103155;28;20070;-67
2023/09/05 07:43:33;;;;;;;14.90;7.45;;;;;;;19.32;59.55;101827.09;5101379;28;20083;-67
2023/09/05 07:46:01;;;;;;;13.30;7.20;;;;;;;19.33;59.68;101831.47;5099126;28;20052;-67
2023/09/05 07:48:29;;;;;;;11.50;7.40;;;;;;;19.34;59.81;101824.94;5097765;28;20055;-67
2023/09/05 07:51:04;;;;;;;11.55;6.45;;;;;;;19.36;59.76;101829.03;5101991;28;20137;-67
2023/09/05 07:53:32;;;;;;;10.05;5.97;;;;;;;19.37;59.88;101832.59;5093430;28;20051;-66
2023/09/05 07:56:00;;;;;;;9.90;6.45;;;;;;;19.39;59.84;101836.72;5096616;28;20123;-67
2023/09/05 07:58:29;;;;;;;10.05;5.53;;;;;;;19.40;59.87;101841.09;5102021;28;20523;-67
2023/09/05 08:00:58;;;;;;;12.30;6.35;;;;;;;19.42;60.08;101835.38;5099282;28;20048;-67
2023/09/05 08:03:26;;;;;;;8.57;5.28;;;;;;;19.42;59.93;101838.94;5101353;28;20056;-67
2023/09/05 08:05:54;;;;;;;12.23;5.53;;;;;;;19.43;60.01;101846.03;5100109;28;20119;-67
2023/09/05 08:08:23;;;;;;;9.40;5.47;;;;;;;19.45;60.19;101852.03;5102578;28;20062;-67
2023/09/05 08:10:51;;;;;;;10.52;4.75;;;;;;;19.45;60.13;101843.03;5103465;28;20139;-67
2023/09/05 08:13:19;;;;;;;9.30;5.18;;;;;;;19.47;60.19;101847.16;5101975;28;20083;-67
2023/09/05 08:15:47;;;;;;;8.77;4.57;;;;;;;19.42;60.04;101841.66;5093678;28;20062;-67
2023/09/05 08:18:17;;;;;;;7.35;4.40;;;;;;;19.49;60.53;101855.91;5102459;28;20054;-66
2023/09/05 08:20:46;;;;;;;8.80;4.10;;;;;;;19.50;60.54;101837.63;5102677;28;20051;-67
2023/09/05 08:23:14;;;;;;;7.85;4.10;;;;;;;19.50;60.75;101852.09;5101826;28;20111;-67
2023/09/05 08:25:41;;;;;;;7.18;3.95;;;;;;;19.52;60.63;101845.59;5099008;28;20047;-68
2023/09/05 08:28:09;;;;;;;8.73;4.70;;;;;;;19.54;60.82;101840.72;5099644;28;20052;-67
2023/09/05 08:30:37;;;;;;;7.22;4.05;;;;;;;19.56;60.88;101846.72;5097547;28;20106;-67
2023/09/05 08:33:05;;;;;;;9.35;4.03;;;;;;;19.58;60.91;101831.75;5102901;28;20052;-67
2023/09/05 08:35:37;;;;;;;6.07;3.63;;;;;;;19.60;61.20;101832.31;5101267;28;20052;-67
2023/09/05 08:38:05;;;;;;;5.65;3.35;;;;;;;19.62;61.07;101834.78;5102692;28;20099;-67
2023/09/05 08:40:34;;;;;;;6.05;3.20;;;;;;;19.63;61.40;101830.97;5100412;28;20048;-67
2023/09/05 08:43:02;;;;;;;6.05;3.33;;;;;;;19.64;61.29;101832.63;5097745;28;20040;-67
2023/09/05 08:45:32;;;;;;;5.88;3.67;;;;;;;19.66;61.25;101834.00;5098981;28;20043;-67
2023/09/05 08:47:59;;;;;;;6.32;3.30;;;;;;;19.68;61.58;101831.84;5092411;28;20048;-66
2023/09/05 08:50:31;;;;;;;5.25;3.08;;;;;;;19.70;61.79;101829.69;5101285;28;20056;-67
2023/09/05 08:53:10;;;;;;;5.70;2.83;;;;;;;19.72;61.74;101832.97;5092537;28;20397;-67
2023/09/05 08:55:41;;;;;;;7.63;2.83;;;;;;;19.75;61.92;101828.91;5094808;28;20147;-67
2023/09/05 08:58:11;;;;;;;5.82;2.90;;;;;;;19.78;61.86;101828.41;5107714;28;20040;-67
2023/09/05 09:00:39;;;;;;;6.18;3.28;;;;;;;19.79;61.95;101824.59;5095148;28;20044;-67
2023/09/05 09:03:07;;;;;;;4.75;2.83;;;;;;;19.81;62.08;101831.44;5106134;28;20047;-67
2023/09/05 09:05:36;;;;;;;3.53;2.47;;;;;;;19.83;62.29;101832.00;5106191;28;20048;-67
2023/09/05 09:08:07;;;;;;;7.20;2.75;;;;;;;19.86;62.30;101824.38;5106190;28;20054;-67
2023/09/05 09:10:35;;;;;;;5.05;2.72;;;;;;;19.89;62.34;101838.31;5105457;28;20143;-67
2023/09/05 09:13:15;;;;;;;6.32;3.00;;;;;;;19.91;62.22;101832.59;5106215;28;20062;-67
2023/09/05 09:15:46;;;;;;;5.50;2.92;;;;;;;19.93;62.45;101833.16;5104803;28;20060;-67
2023/09/05 09:18:14;;;;;;;12.30;2.72;;;;;;;19.96;62.48;101840.81;5106678;28;20075;-67
2023/09/05 09:20:43;;;;;;;5.03;3.25;;;;;;;19.98;62.75;101841.38;5105066;28;20055;-67
2023/09/05 09:23:14;;;;;;;3.38;2.30;;;;;;;20.00;62.72;101839.22;5103215;28;20130;-67
2023/09/05 09:25:47;;;;;;;3.85;2.55;;;;;;;20.02;62.73;101840.59;5102798;28;20181;-68
2023/09/05 09:28:22;;;;;;;5.38;2.80;;;;;;;20.07;62.86;101850.75;5104615;28;20064;-67
2023/09/05 09:30:58;;;;;;;5.90;2.53;;;;;;;20.09;62.80;101848.56;5100340;28;20048;-67
2023/09/05 09:33:26;;;;;;;4.57;2.72;;;;;;;20.11;62.76;101847.22;5105935;28;20079;-67
2023/09/05 09:36:07;;;;;;;4.65;2.40;;;;;;;20.18;62.77;101854.38;5100760;28;20052;-67
2023/09/05 09:38:36;;;;;;;4.60;2.47;;;;;;;20.23;62.96;101860.69;5105934;28;20052;-67
2023/09/05 09:41:06;;;;;;;4.10;2.47;;;;;;;20.25;62.91;101853.06;5103794;28;20098;-67
2023/09/05 09:43:35;;;;;;;3.38;2.13;;;;;;;20.28;62.95;101844.34;5105643;28;20044;-67
2023/09/05 09:46:05;;;;;;;3.53;2.30;;;;;;;20.34;63.10;101856.97;5090998;28;20174;-67
2023/09/05 09:48:34;;;;;;;4.13;2.33;;;;;;;20.38;63.05;101852.66;5105036;28;20062;-67
2023/09/05 09:51:06;;;;;;;5.05;2.58;;;;;;;20.43;63.04;101855.41;5101174;28;20052;-67
2023/09/05 09:53:38;;;;;;;3.75;2.67;;;;;;;20.46;63.09;101849.44;5103807;28;20044;-67
2023/09/05 09:56:11;;;;;;;3.05;1.95;;;;;;;20.52;63.22;101847.53;5102631;28;20052;-67
2023/09/05 09:58:41;;;;;;;5.63;2.75;;;;;;;20.56;63.33;101850.56;5105000;28;20040;-67
2023/09/05 10:01:11;;;;;;;3.80;1.98;;;;;;;20.61;63.37;101850.59;5101625;28;20044;-67
2023/09/05 10:03:41;;;;;;;4.45;2.63;;;;;;;20.66;63.43;101853.38;5106107;28;20109;-67
2023/09/05 10:06:10;;;;;;;4.88;2.75;;;;;;;20.73;63.25;101852.03;5105068;28;20130;-67
2023/09/05 10:08:40;;;;;;;7.10;2.65;;;;;;;20.78;63.24;101852.06;5104276;28;20082;-67
2023/09/05 10:11:14;;;;;;;3.15;2.05;;;;;;;20.84;63.29;101841.94;5104701;28;20075;-67
2023/09/05 10:13:43;;;;;;;5.15;2.00;;;;;;;20.89;63.37;101843.88;5104805;28;20059;-67
2023/09/05 10:16:12;;;;;;;3.40;2.00;;;;;;;20.93;63.24;101837.63;5102749;28;20062;-67
2023/09/05 10:18:45;;;;;;;3.88;2.33;;;;;;;20.97;63.30;101841.47;5105442;28;20554;-67
2023/09/05 10:21:14;;;;;;;3.38;2.17;;;;;;;20.99;63.43;101833.81;5103926;28;20154;-67
2023/09/05 10:23:44;;;;;;;2.47;1.80;;;;;;;21.05;63.30;101834.66;5103912;28;20044;-67
2023/09/05 10:26:14;;;;;;;5.45;2.03;;;;;;;21.09;63.25;101839.31;5102682;28;20048;-67
2023/09/05 10:28:42;;;;;;;7.15;2.22;;;;;;;21.12;63.13;101829.75;5102541;28;20142;-67
2023/09/05 10:31:12;;;;;;;3.35;2.00;;;;;;;21.16;62.77;101833.59;5101267;28;20063;-66
2023/09/05 10:33:45;;;;;;;2.97;1.98;;;;;;;21.20;63.17;101826.50;5104748;28;20093;-66
2023/09/05 10:36:39;;;;;;;4.97;1.98;;;;;;;21.27;63.18;101829.84;5103605;28;20048;-66
2023/09/05 10:39:32;;;;;;;6.30;2.17;;;;;;;21.34;63.01;101821.38;5097891;28;20084;-66
2023/09/05 10:42:01;;;;;;;2.85;1.80;;;;;;;21.41;63.36;101825.50;5103297;28;20054;-66
2023/09/05 10:44:30;;;;;;;3.20;2.10;;;;;;;21.47;63.24;101823.59;5082891;28;20079;-67
2023/09/05 10:47:25;;;;;;;3.38;1.95;;;;;;;21.54;63.38;101823.34;5097698;28;20113;-67
2023/09/05 10:49:58;;;;;;;3.47;2.10;;;;;;;21.60;63.05;101822.25;5097734;28;20063;-66
2023/09/05 10:52:29;;;;;;;3.47;2.22;;;;;;;21.63;63.11;101821.72;5102074;28;20062;-66
2023/09/05 10:54:59;;;;;;;3.08;2.00;;;;;;;21.70;63.03;101825.00;5097083;28;20044;-66
2023/09/05 10:57:35;;;;;;;3.30;2.00;;;;;;;21.75;63.24;101811.31;5099703;28;20048;-66
2023/09/05 11:00:29;;;;;;;4.13;1.97;;;;;;;21.77;62.47;101814.59;5102699;28;20079;-67
2023/09/05 11:03:09;;;;;;;2.50;1.90;;;;;;;21.84;62.94;101811.59;5103175;28;20298;-67
2023/09/05 11:05:42;;;;;;;2.63;1.73;;;;;;;21.87;62.97;101809.13;5102310;28;20056;-67
2023/09/05 11:08:20;;;;;;;4.03;2.15;;;;;;;21.93;62.74;101805.28;5103439;28;20047;-67
2023/09/05 11:10:53;;;;;;;6.40;2.45;;;;;;;21.99;63.05;101811.59;5103184;28;20047;-67
2023/09/05 11:13:22;;;;;;;6.60;2.20;;;;;;;22.03;63.29;101805.31;5102374;28;20040;-67
2023/09/05 11:15:59;;;;;;;2.53;1.67;;;;;;;22.10;62.89;101804.22;5101806;28;20052;-67
2023/09/05 11:18:27;;;;;;;2.75;1.85;;;;;;;22.09;63.17;101795.19;5103416;28;20108;-67
2023/09/05 11:20:55;;;;;;;2.53;1.92;;;;;;;22.18;62.42;101806.41;5102850;28;20070;-67
2023/09/05 11:23:25;;;;;;;4.10;2.15;;;;;;;22.21;62.65;101805.84;5098242;28;20069;-67
2023/09/05 11:25:59;;;;;;;3.15;1.88;;;;;;;22.25;62.87;101801.47;5099671;28;20048;-67
2023/09/05 11:28:27;;;;;;;4.13;2.03;;;;;;;22.28;61.93;101801.72;5099913;28;20047;-67
2023/09/05 11:30:59;;;;;;;3.08;1.80;;;;;;;22.32;61.77;101804.72;5100338;28;20493;-67
2023/09/05 11:33:27;;;;;;;4.82;1.95;;;;;;;22.38;62.34;101806.38;5103560;28;20074;-66
2023/09/05 11:35:57;;;;;;;5.25;2.25;;;;;;;22.44;62.17;101797.03;5096543;28;20044;-68